sensor_id;sensor_type;location;lat;lon;timestamp;P1;durP1;ratioP1;P2;durP2;ratioP2
9420;SDS011;4749;51.398;5.466;2023-08-24T00:00:34;7.47;;;5.80;;
9420;SDS011;4749;51.398;5.466;2023-08-24T00:03:04;10.73;;;4.57;;
9420;SDS011;4749;51.398;5.466;2023-08-24T00:05:34;6.72;;;4.50;;
9420;SDS011;4749;51.398;5.466;2023-08-24T00:08:07;7.15;;;4.90;;
9420;SDS011;4749;51.398;5.466;2023-08-24T00:10:35;5.78;;;4.45;;
9420;SDS011;4749;51.398;5.466;2023-08-24T00:13:04;7.03;;;4.80;;
9420;SDS011;4749;51.398;5.466;2023-08-24T00:15:31;7.30;;;4.10;;
9420;SDS011;4749;51.398;5.466;2023-08-24T00:17:58;5.53;;;4.03;;
9420;SDS011;4749;51.398;5.466;2023-08-24T00:20:25;4.93;;;4.32;;
9420;SDS011;4749;51.398;5.466;2023-08-24T00:22:53;6.82;;;4.90;;
9420;SDS011;4749;51.398;5.466;2023-08-24T00:25:20;5.32;;;4.18;;
9420;SDS011;4749;51.398;5.466;2023-08-24T00:27:48;7.40;;;5.05;;
9420;SDS011;4749;51.398;5.466;2023-08-24T00:30:15;6.88;;;4.80;;
9420;SDS011;4749;51.398;5.466;2023-08-24T00:32:42;8.85;;;4.78;;
9420;SDS011;4749;51.398;5.466;2023-08-24T00:35:09;8.73;;;4.90;;
9420;SDS011;4749;51.398;5.466;2023-08-24T00:37:37;9.75;;;5.20;;
9420;SDS011;4749;51.398;5.466;2023-08-24T00:40:05;8.65;;;5.50;;
9420;SDS011;4749;51.398;5.466;2023-08-24T00:42:39;7.75;;;4.60;;
9420;SDS011;4749;51.398;5.466;2023-08-24T00:45:09;8.43;;;5.15;;
9420;SDS011;4749;51.398;5.466;2023-08-24T00:47:39;9.68;;;5.30;;
9420;SDS011;4749;51.398;5.466;2023-08-24T00:50:11;7.32;;;5.50;;
9420;SDS011;4749;51.398;5.466;2023-08-24T00:52:40;7.40;;;5.18;;
9420;SDS011;4749;51.398;5.466;2023-08-24T00:55:08;10.48;;;5.60;;
9420;SDS011;4749;51.398;5.466;2023-08-24T00:57:36;8.48;;;5.80;;
9420;SDS011;4749;51.398;5.466;2023-08-24T01:00:05;6.32;;;5.55;;
9420;SDS011;4749;51.398;5.466;2023-08-24T01:02:41;11.07;;;6.03;;
9420;SDS011;4749;51.398;5.466;2023-08-24T01:05:08;8.40;;;5.57;;
9420;SDS011;4749;51.398;5.466;2023-08-24T01:07:35;9.07;;;5.95;;
9420;SDS011;4749;51.398;5.466;2023-08-24T01:10:06;8.10;;;6.07;;
9420;SDS011;4749;51.398;5.466;2023-08-24T01:18:24;8.88;;;6.05;;
9420;SDS011;4749;51.398;5.466;2023-08-24T01:20:54;10.68;;;6.20;;
9420;SDS011;4749;51.398;5.466;2023-08-24T01:23:43;9.05;;;6.05;;
9420;SDS011;4749;51.398;5.466;2023-08-24T01:26:40;9.27;;;6.07;;
9420;SDS011;4749;51.398;5.466;2023-08-24T01:29:09;11.27;;;6.40;;
9420;SDS011;4749;51.398;5.466;2023-08-24T01:31:37;10.07;;;6.28;;
9420;SDS011;4749;51.398;5.466;2023-08-24T01:34:04;11.57;;;6.63;;
9420;SDS011;4749;51.398;5.466;2023-08-24T01:36:31;11.27;;;6.90;;
9420;SDS011;4749;51.398;5.466;2023-08-24T01:39:04;9.65;;;6.47;;
9420;SDS011;4749;51.398;5.466;2023-08-24T01:42:02;9.68;;;7.20;;
9420;SDS011;4749;51.398;5.466;2023-08-24T01:44:32;12.88;;;6.97;;
9420;SDS011;4749;51.398;5.466;2023-08-24T01:47:04;13.75;;;7.80;;
9420;SDS011;4749;51.398;5.466;2023-08-24T01:49:34;10.30;;;6.28;;
9420;SDS011;4749;51.398;5.466;2023-08-24T01:52:01;14.98;;;7.40;;
9420;SDS011;4749;51.398;5.466;2023-08-24T01:54:30;9.50;;;7.35;;
9420;SDS011;4749;51.398;5.466;2023-08-24T01:56:58;10.82;;;6.70;;
9420;SDS011;4749;51.398;5.466;2023-08-24T01:59:25;10.40;;;7.15;;
9420;SDS011;4749;51.398;5.466;2023-08-24T02:01:52;9.95;;;7.05;;
9420;SDS011;4749;51.398;5.466;2023-08-24T02:04:19;12.52;;;7.72;;
9420;SDS011;4749;51.398;5.466;2023-08-24T02:06:47;14.90;;;7.72;;
9420;SDS011;4749;51.398;5.466;2023-08-24T02:09:14;11.52;;;7.68;;
9420;SDS011;4749;51.398;5.466;2023-08-24T02:11:43;14.35;;;7.18;;
9420;SDS011;4749;51.398;5.466;2023-08-24T02:14:10;12.63;;;7.60;;
9420;SDS011;4749;51.398;5.466;2023-08-24T02:16:37;11.38;;;7.15;;
9420;SDS011;4749;51.398;5.466;2023-08-24T02:19:04;12.90;;;7.40;;
9420;SDS011;4749;51.398;5.466;2023-08-24T02:21:31;13.00;;;7.93;;
9420;SDS011;4749;51.398;5.466;2023-08-24T02:24:01;9.95;;;7.32;;
9420;SDS011;4749;51.398;5.466;2023-08-24T02:26:30;9.30;;;7.45;;
9420;SDS011;4749;51.398;5.466;2023-08-24T02:28:57;11.45;;;7.45;;
9420;SDS011;4749;51.398;5.466;2023-08-24T02:31:25;14.10;;;7.82;;
9420;SDS011;4749;51.398;5.466;2023-08-24T02:33:52;16.35;;;7.45;;
9420;SDS011;4749;51.398;5.466;2023-08-24T02:36:19;13.32;;;7.45;;
9420;SDS011;4749;51.398;5.466;2023-08-24T02:38:46;11.40;;;8.02;;
9420;SDS011;4749;51.398;5.466;2023-08-24T02:41:13;13.43;;;7.43;;
9420;SDS011;4749;51.398;5.466;2023-08-24T02:43:41;12.93;;;7.95;;
9420;SDS011;4749;51.398;5.466;2023-08-24T02:46:11;11.77;;;8.35;;
9420;SDS011;4749;51.398;5.466;2023-08-24T02:48:38;16.92;;;8.13;;
9420;SDS011;4749;51.398;5.466;2023-08-24T02:51:08;9.48;;;7.60;;
9420;SDS011;4749;51.398;5.466;2023-08-24T02:53:35;10.85;;;7.85;;
9420;SDS011;4749;51.398;5.466;2023-08-24T02:56:02;11.68;;;8.13;;
9420;SDS011;4749;51.398;5.466;2023-08-24T02:58:30;11.90;;;7.95;;
9420;SDS011;4749;51.398;5.466;2023-08-24T03:00:57;11.07;;;8.23;;
9420;SDS011;4749;51.398;5.466;2023-08-24T03:03:25;12.00;;;8.30;;
9420;SDS011;4749;51.398;5.466;2023-08-24T03:05:55;12.90;;;8.85;;
9420;SDS011;4749;51.398;5.466;2023-08-24T03:08:30;14.50;;;9.10;;
9420;SDS011;4749;51.398;5.466;2023-08-24T03:11:02;14.43;;;8.95;;
9420;SDS011;4749;51.398;5.466;2023-08-24T03:13:31;12.25;;;8.57;;
9420;SDS011;4749;51.398;5.466;2023-08-24T03:16:05;12.90;;;9.45;;
9420;SDS011;4749;51.398;5.466;2023-08-24T03:18:34;13.73;;;10.02;;
9420;SDS011;4749;51.398;5.466;2023-08-24T03:21:01;13.25;;;10.20;;
9420;SDS011;4749;51.398;5.466;2023-08-24T03:23:28;15.75;;;10.98;;
9420;SDS011;4749;51.398;5.466;2023-08-24T03:25:55;17.33;;;10.15;;
9420;SDS011;4749;51.398;5.466;2023-08-24T03:28:22;16.42;;;10.07;;
9420;SDS011;4749;51.398;5.466;2023-08-24T03:30:51;14.85;;;10.75;;
9420;SDS011;4749;51.398;5.466;2023-08-24T03:33:20;15.23;;;10.43;;
9420;SDS011;4749;51.398;5.466;2023-08-24T03:35:48;13.45;;;10.50;;
9420;SDS011;4749;51.398;5.466;2023-08-24T03:38:16;15.60;;;11.85;;
9420;SDS011;4749;51.398;5.466;2023-08-24T03:40:43;17.02;;;11.13;;
9420;SDS011;4749;51.398;5.466;2023-08-24T03:43:10;16.90;;;11.18;;
9420;SDS011;4749;51.398;5.466;2023-08-24T03:45:38;14.20;;;11.60;;
9420;SDS011;4749;51.398;5.466;2023-08-24T03:48:05;16.02;;;12.30;;
9420;SDS011;4749;51.398;5.466;2023-08-24T03:50:33;17.40;;;12.73;;
9420;SDS011;4749;51.398;5.466;2023-08-24T03:53:00;15.63;;;13.13;;
9420;SDS011;4749;51.398;5.466;2023-08-24T03:55:27;18.75;;;14.32;;
9420;SDS011;4749;51.398;5.466;2023-08-24T03:57:54;18.38;;;14.82;;
9420;SDS011;4749;51.398;5.466;2023-08-24T04:00:21;21.73;;;13.52;;
9420;SDS011;4749;51.398;5.466;2023-08-24T04:02:48;20.20;;;14.50;;
9420;SDS011;4749;51.398;5.466;2023-08-24T04:05:16;20.85;;;14.73;;
9420;SDS011;4749;51.398;5.466;2023-08-24T04:07:44;22.20;;;16.83;;
9420;SDS011;4749;51.398;5.466;2023-08-24T04:10:11;21.92;;;15.57;;
9420;SDS011;4749;51.398;5.466;2023-08-24T04:12:38;23.88;;;16.48;;
9420;SDS011;4749;51.398;5.466;2023-08-24T04:15:05;19.83;;;15.52;;
9420;SDS011;4749;51.398;5.466;2023-08-24T04:17:32;19.48;;;15.10;;
9420;SDS011;4749;51.398;5.466;2023-08-24T04:20:00;23.17;;;16.10;;
9420;SDS011;4749;51.398;5.466;2023-08-24T04:22:27;21.08;;;16.20;;
9420;SDS011;4749;51.398;5.466;2023-08-24T04:24:54;22.17;;;16.77;;
9420;SDS011;4749;51.398;5.466;2023-08-24T04:27:21;25.88;;;16.42;;
9420;SDS011;4749;51.398;5.466;2023-08-24T04:29:48;23.10;;;16.08;;
9420;SDS011;4749;51.398;5.466;2023-08-24T04:32:15;22.10;;;16.50;;
9420;SDS011;4749;51.398;5.466;2023-08-24T04:34:43;23.05;;;16.27;;
9420;SDS011;4749;51.398;5.466;2023-08-24T04:37:10;20.40;;;16.60;;
9420;SDS011;4749;51.398;5.466;2023-08-24T04:39:37;24.73;;;15.48;;
9420;SDS011;4749;51.398;5.466;2023-08-24T04:42:05;20.20;;;16.10;;
9420;SDS011;4749;51.398;5.466;2023-08-24T04:44:32;22.30;;;15.45;;
9420;SDS011;4749;51.398;5.466;2023-08-24T04:47:00;24.45;;;17.23;;
9420;SDS011;4749;51.398;5.466;2023-08-24T04:49:27;22.45;;;16.15;;
9420;SDS011;4749;51.398;5.466;2023-08-24T04:51:56;22.92;;;15.95;;
9420;SDS011;4749;51.398;5.466;2023-08-24T04:54:23;21.48;;;15.05;;
9420;SDS011;4749;51.398;5.466;2023-08-24T04:56:50;19.23;;;15.32;;
9420;SDS011;4749;51.398;5.466;2023-08-24T04:59:17;20.63;;;15.18;;
9420;SDS011;4749;51.398;5.466;2023-08-24T05:01:44;20.63;;;15.02;;
9420;SDS011;4749;51.398;5.466;2023-08-24T05:04:12;21.52;;;15.45;;
9420;SDS011;4749;51.398;5.466;2023-08-24T05:06:39;18.15;;;13.57;;
9420;SDS011;4749;51.398;5.466;2023-08-24T05:09:06;19.73;;;14.38;;
9420;SDS011;4749;51.398;5.466;2023-08-24T05:11:34;18.60;;;14.48;;
9420;SDS011;4749;51.398;5.466;2023-08-24T05:14:01;23.08;;;15.85;;
9420;SDS011;4749;51.398;5.466;2023-08-24T05:16:28;19.88;;;14.32;;
9420;SDS011;4749;51.398;5.466;2023-08-24T05:18:56;20.98;;;15.43;;
9420;SDS011;4749;51.398;5.466;2023-08-24T05:21:23;20.58;;;15.75;;
9420;SDS011;4749;51.398;5.466;2023-08-24T05:23:50;19.88;;;15.88;;
9420;SDS011;4749;51.398;5.466;2023-08-24T05:26:17;20.88;;;15.13;;
9420;SDS011;4749;51.398;5.466;2023-08-24T05:28:49;19.92;;;14.70;;
9420;SDS011;4749;51.398;5.466;2023-08-24T05:31:16;19.75;;;15.38;;
9420;SDS011;4749;51.398;5.466;2023-08-24T05:33:47;20.27;;;15.25;;
9420;SDS011;4749;51.398;5.466;2023-08-24T05:36:14;24.67;;;15.93;;
9420;SDS011;4749;51.398;5.466;2023-08-24T05:38:41;21.73;;;16.52;;
9420;SDS011;4749;51.398;5.466;2023-08-24T05:41:29;24.05;;;16.17;;
9420;SDS011;4749;51.398;5.466;2023-08-24T05:43:56;22.50;;;15.70;;
9420;SDS011;4749;51.398;5.466;2023-08-24T05:46:23;21.67;;;16.30;;
9420;SDS011;4749;51.398;5.466;2023-08-24T05:48:51;19.98;;;15.77;;
9420;SDS011;4749;51.398;5.466;2023-08-24T05:51:18;22.35;;;16.42;;
9420;SDS011;4749;51.398;5.466;2023-08-24T05:53:45;23.63;;;16.00;;
9420;SDS011;4749;51.398;5.466;2023-08-24T05:56:12;20.88;;;15.25;;
9420;SDS011;4749;51.398;5.466;2023-08-24T05:58:39;24.23;;;15.63;;
9420;SDS011;4749;51.398;5.466;2023-08-24T06:01:06;20.17;;;15.45;;
9420;SDS011;4749;51.398;5.466;2023-08-24T06:03:34;21.63;;;15.55;;
9420;SDS011;4749;51.398;5.466;2023-08-24T06:06:02;21.17;;;15.88;;
9420;SDS011;4749;51.398;5.466;2023-08-24T06:08:30;19.25;;;15.90;;
9420;SDS011;4749;51.398;5.466;2023-08-24T06:10:58;20.73;;;15.50;;
9420;SDS011;4749;51.398;5.466;2023-08-24T06:13:25;23.50;;;15.50;;
9420;SDS011;4749;51.398;5.466;2023-08-24T06:15:53;21.92;;;15.65;;
9420;SDS011;4749;51.398;5.466;2023-08-24T06:18:21;22.10;;;15.57;;
9420;SDS011;4749;51.398;5.466;2023-08-24T06:20:48;20.45;;;14.30;;
9420;SDS011;4749;51.398;5.466;2023-08-24T06:23:16;20.38;;;14.52;;
9420;SDS011;4749;51.398;5.466;2023-08-24T06:25:44;18.33;;;14.35;;
9420;SDS011;4749;51.398;5.466;2023-08-24T06:28:12;18.50;;;13.95;;
9420;SDS011;4749;51.398;5.466;2023-08-24T06:30:40;17.60;;;13.25;;
9420;SDS011;4749;51.398;5.466;2023-08-24T06:33:11;19.83;;;13.93;;
9420;SDS011;4749;51.398;5.466;2023-08-24T06:35:38;17.65;;;13.02;;
9420;SDS011;4749;51.398;5.466;2023-08-24T06:38:07;15.35;;;12.10;;
9420;SDS011;4749;51.398;5.466;2023-08-24T06:40:34;14.93;;;12.80;;
9420;SDS011;4749;51.398;5.466;2023-08-24T06:43:01;16.20;;;12.75;;
9420;SDS011;4749;51.398;5.466;2023-08-24T06:45:28;14.55;;;11.23;;
9420;SDS011;4749;51.398;5.466;2023-08-24T06:47:55;17.13;;;11.60;;
9420;SDS011;4749;51.398;5.466;2023-08-24T06:50:23;18.08;;;12.20;;
9420;SDS011;4749;51.398;5.466;2023-08-24T06:52:50;15.07;;;12.02;;
9420;SDS011;4749;51.398;5.466;2023-08-24T06:55:17;15.57;;;11.75;;
9420;SDS011;4749;51.398;5.466;2023-08-24T06:57:47;16.60;;;11.98;;
9420;SDS011;4749;51.398;5.466;2023-08-24T07:00:19;17.85;;;11.52;;
9420;SDS011;4749;51.398;5.466;2023-08-24T07:02:50;17.48;;;11.63;;
9420;SDS011;4749;51.398;5.466;2023-08-24T07:05:18;17.30;;;12.40;;
9420;SDS011;4749;51.398;5.466;2023-08-24T07:07:45;13.75;;;10.73;;
9420;SDS011;4749;51.398;5.466;2023-08-24T07:10:14;16.83;;;11.20;;
9420;SDS011;4749;51.398;5.466;2023-08-24T07:12:41;13.88;;;9.95;;
9420;SDS011;4749;51.398;5.466;2023-08-24T07:15:11;15.50;;;10.85;;
9420;SDS011;4749;51.398;5.466;2023-08-24T07:17:39;14.20;;;10.32;;
9420;SDS011;4749;51.398;5.466;2023-08-24T07:20:07;13.73;;;9.43;;
9420;SDS011;4749;51.398;5.466;2023-08-24T07:22:35;16.27;;;9.77;;
9420;SDS011;4749;51.398;5.466;2023-08-24T07:25:03;13.98;;;9.55;;
9420;SDS011;4749;51.398;5.466;2023-08-24T07:27:32;13.55;;;9.35;;
9420;SDS011;4749;51.398;5.466;2023-08-24T07:30:00;10.02;;;8.15;;
9420;SDS011;4749;51.398;5.466;2023-08-24T07:32:51;14.65;;;8.63;;
9420;SDS011;4749;51.398;5.466;2023-08-24T07:35:19;10.20;;;8.20;;
9420;SDS011;4749;51.398;5.466;2023-08-24T07:37:47;16.52;;;7.95;;
9420;SDS011;4749;51.398;5.466;2023-08-24T07:40:15;13.63;;;8.23;;
9420;SDS011;4749;51.398;5.466;2023-08-24T07:42:43;10.07;;;8.30;;
9420;SDS011;4749;51.398;5.466;2023-08-24T07:45:14;12.43;;;8.35;;
9420;SDS011;4749;51.398;5.466;2023-08-24T07:47:43;10.50;;;7.55;;
9420;SDS011;4749;51.398;5.466;2023-08-24T07:50:10;12.20;;;7.70;;
9420;SDS011;4749;51.398;5.466;2023-08-24T07:52:38;11.70;;;7.47;;
9420;SDS011;4749;51.398;5.466;2023-08-24T07:55:06;11.88;;;6.72;;
9420;SDS011;4749;51.398;5.466;2023-08-24T07:57:35;12.48;;;7.82;;
9420;SDS011;4749;51.398;5.466;2023-08-24T08:00:05;10.90;;;6.78;;
9420;SDS011;4749;51.398;5.466;2023-08-24T08:02:36;8.90;;;6.32;;
9420;SDS011;4749;51.398;5.466;2023-08-24T08:05:04;10.27;;;6.55;;
9420;SDS011;4749;51.398;5.466;2023-08-24T08:07:34;12.52;;;7.38;;
9420;SDS011;4749;51.398;5.466;2023-08-24T08:10:01;10.68;;;6.95;;
9420;SDS011;4749;51.398;5.466;2023-08-24T08:12:30;12.82;;;6.95;;
9420;SDS011;4749;51.398;5.466;2023-08-24T08:14:58;12.65;;;7.32;;
9420;SDS011;4749;51.398;5.466;2023-08-24T08:17:26;10.32;;;6.28;;
9420;SDS011;4749;51.398;5.466;2023-08-24T08:19:54;9.98;;;6.68;;
9420;SDS011;4749;51.398;5.466;2023-08-24T08:22:22;10.48;;;6.45;;
9420;SDS011;4749;51.398;5.466;2023-08-24T08:24:49;9.50;;;6.78;;
9420;SDS011;4749;51.398;5.466;2023-08-24T08:27:17;13.25;;;6.47;;
9420;SDS011;4749;51.398;5.466;2023-08-24T08:29:44;11.07;;;6.40;;
9420;SDS011;4749;51.398;5.466;2023-08-24T08:32:12;10.23;;;7.15;;
9420;SDS011;4749;51.398;5.466;2023-08-24T08:34:39;8.80;;;5.95;;
9420;SDS011;4749;51.398;5.466;2023-08-24T08:37:06;11.80;;;6.60;;
9420;SDS011;4749;51.398;5.466;2023-08-24T08:39:33;13.30;;;7.03;;
9420;SDS011;4749;51.398;5.466;2023-08-24T08:42:00;11.77;;;7.10;;
9420;SDS011;4749;51.398;5.466;2023-08-24T08:44:31;9.23;;;5.97;;
9420;SDS011;4749;51.398;5.466;2023-08-24T08:46:59;11.40;;;6.20;;
9420;SDS011;4749;51.398;5.466;2023-08-24T08:49:27;11.25;;;5.85;;
9420;SDS011;4749;51.398;5.466;2023-08-24T08:51:56;14.07;;;6.40;;
9420;SDS011;4749;51.398;5.466;2023-08-24T08:54:24;13.68;;;6.50;;
9420;SDS011;4749;51.398;5.466;2023-08-24T08:56:51;8.20;;;6.05;;
9420;SDS011;4749;51.398;5.466;2023-08-24T08:59:19;10.05;;;6.40;;
9420;SDS011;4749;51.398;5.466;2023-08-24T09:01:49;10.00;;;5.80;;
9420;SDS011;4749;51.398;5.466;2023-08-24T09:04:17;9.63;;;6.32;;
9420;SDS011;4749;51.398;5.466;2023-08-24T09:06:44;8.57;;;5.60;;
9420;SDS011;4749;51.398;5.466;2023-08-24T09:09:12;13.23;;;6.25;;
9420;SDS011;4749;51.398;5.466;2023-08-24T09:11:41;11.13;;;5.88;;
9420;SDS011;4749;51.398;5.466;2023-08-24T09:14:08;13.88;;;6.03;;
9420;SDS011;4749;51.398;5.466;2023-08-24T09:16:35;9.10;;;5.50;;
9420;SDS011;4749;51.398;5.466;2023-08-24T09:19:04;12.57;;;5.60;;
9420;SDS011;4749;51.398;5.466;2023-08-24T09:21:36;8.05;;;5.00;;
9420;SDS011;4749;51.398;5.466;2023-08-24T09:24:08;9.77;;;4.97;;
9420;SDS011;4749;51.398;5.466;2023-08-24T09:26:37;7.57;;;4.68;;
9420;SDS011;4749;51.398;5.466;2023-08-24T09:29:15;7.97;;;4.80;;
9420;SDS011;4749;51.398;5.466;2023-08-24T09:31:42;9.15;;;3.67;;
9420;SDS011;4749;51.398;5.466;2023-08-24T09:34:13;8.60;;;4.50;;
9420;SDS011;4749;51.398;5.466;2023-08-24T09:36:41;6.72;;;3.75;;
9420;SDS011;4749;51.398;5.466;2023-08-24T09:39:10;9.40;;;4.47;;
9420;SDS011;4749;51.398;5.466;2023-08-24T09:41:43;9.20;;;4.32;;
9420;SDS011;4749;51.398;5.466;2023-08-24T09:44:12;12.43;;;4.97;;
9420;SDS011;4749;51.398;5.466;2023-08-24T09:46:39;8.70;;;4.90;;
9420;SDS011;4749;51.398;5.466;2023-08-24T09:49:09;9.23;;;4.30;;
9420;SDS011;4749;51.398;5.466;2023-08-24T09:51:38;7.10;;;4.30;;
9420;SDS011;4749;51.398;5.466;2023-08-24T09:54:08;7.07;;;4.40;;
9420;SDS011;4749;51.398;5.466;2023-08-24T09:56:36;8.23;;;4.93;;
9420;SDS011;4749;51.398;5.466;2023-08-24T09:59:16;9.75;;;5.43;;
9420;SDS011;4749;51.398;5.466;2023-08-24T10:01:48;8.27;;;4.65;;
9420;SDS011;4749;51.398;5.466;2023-08-24T10:04:28;8.55;;;4.63;;
9420;SDS011;4749;51.398;5.466;2023-08-24T10:07:03;8.77;;;5.45;;
9420;SDS011;4749;51.398;5.466;2023-08-24T10:09:38;7.68;;;4.78;;
9420;SDS011;4749;51.398;5.466;2023-08-24T10:12:08;10.77;;;4.75;;
9420;SDS011;4749;51.398;5.466;2023-08-24T10:17:33;8.07;;;5.63;;
9420;SDS011;4749;51.398;5.466;2023-08-24T10:20:02;7.93;;;5.15;;
9420;SDS011;4749;51.398;5.466;2023-08-24T10:22:33;10.48;;;5.82;;
9420;SDS011;4749;51.398;5.466;2023-08-24T10:25:03;13.57;;;6.20;;
9420;SDS011;4749;51.398;5.466;2023-08-24T10:27:33;7.32;;;5.30;;
9420;SDS011;4749;51.398;5.466;2023-08-24T10:30:01;10.15;;;5.00;;
9420;SDS011;4749;51.398;5.466;2023-08-24T10:32:28;7.57;;;4.88;;
9420;SDS011;4749;51.398;5.466;2023-08-24T10:34:56;11.30;;;5.57;;
9420;SDS011;4749;51.398;5.466;2023-08-24T10:37:26;5.38;;;4.50;;
9420;SDS011;4749;51.398;5.466;2023-08-24T10:39:54;12.60;;;5.28;;
9420;SDS011;4749;51.398;5.466;2023-08-24T10:42:21;9.18;;;5.03;;
9420;SDS011;4749;51.398;5.466;2023-08-24T10:44:49;7.47;;;4.78;;
9420;SDS011;4749;51.398;5.466;2023-08-24T10:52:30;9.15;;;5.18;;
9420;SDS011;4749;51.398;5.466;2023-08-24T10:55:00;9.52;;;5.07;;
9420;SDS011;4749;51.398;5.466;2023-08-24T10:57:36;9.30;;;4.72;;
9420;SDS011;4749;51.398;5.466;2023-08-24T11:00:06;11.05;;;4.78;;
9420;SDS011;4749;51.398;5.466;2023-08-24T11:02:45;10.00;;;5.03;;
9420;SDS011;4749;51.398;5.466;2023-08-24T11:05:29;8.65;;;4.70;;
9420;SDS011;4749;51.398;5.466;2023-08-24T11:07:59;7.95;;;4.45;;
9420;SDS011;4749;51.398;5.466;2023-08-24T11:10:44;12.32;;;5.07;;
9420;SDS011;4749;51.398;5.466;2023-08-24T11:13:16;7.07;;;5.10;;
9420;SDS011;4749;51.398;5.466;2023-08-24T11:15:46;7.90;;;4.95;;
9420;SDS011;4749;51.398;5.466;2023-08-24T11:18:25;12.05;;;5.07;;
9420;SDS011;4749;51.398;5.466;2023-08-24T11:20:55;8.40;;;4.55;;
9420;SDS011;4749;51.398;5.466;2023-08-24T11:23:29;9.85;;;4.35;;
9420;SDS011;4749;51.398;5.466;2023-08-24T11:26:00;6.68;;;4.10;;
9420;SDS011;4749;51.398;5.466;2023-08-24T11:28:28;12.00;;;4.72;;
9420;SDS011;4749;51.398;5.466;2023-08-24T11:30:58;6.68;;;4.25;;
9420;SDS011;4749;51.398;5.466;2023-08-24T11:33:30;8.90;;;4.63;;
9420;SDS011;4749;51.398;5.466;2023-08-24T11:36:04;9.07;;;5.18;;
9420;SDS011;4749;51.398;5.466;2023-08-24T11:38:37;10.25;;;4.65;;
9420;SDS011;4749;51.398;5.466;2023-08-24T11:41:15;7.97;;;4.60;;
9420;SDS011;4749;51.398;5.466;2023-08-24T11:43:45;8.90;;;4.63;;
9420;SDS011;4749;51.398;5.466;2023-08-24T11:46:17;8.77;;;4.88;;
9420;SDS011;4749;51.398;5.466;2023-08-24T11:48:45;9.05;;;4.72;;
9420;SDS011;4749;51.398;5.466;2023-08-24T11:51:13;7.95;;;4.78;;
9420;SDS011;4749;51.398;5.466;2023-08-24T11:53:49;8.45;;;5.45;;
9420;SDS011;4749;51.398;5.466;2023-08-24T11:56:26;8.60;;;4.60;;
9420;SDS011;4749;51.398;5.466;2023-08-24T11:58:55;10.77;;;4.97;;
9420;SDS011;4749;51.398;5.466;2023-08-24T12:01:23;9.13;;;5.35;;
9420;SDS011;4749;51.398;5.466;2023-08-24T12:03:55;6.63;;;4.90;;
9420;SDS011;4749;51.398;5.466;2023-08-24T12:06:39;10.63;;;5.13;;
9420;SDS011;4749;51.398;5.466;2023-08-24T12:09:07;7.75;;;4.85;;
9420;SDS011;4749;51.398;5.466;2023-08-24T12:11:35;6.85;;;4.53;;
9420;SDS011;4749;51.398;5.466;2023-08-24T12:14:03;6.10;;;4.60;;
9420;SDS011;4749;51.398;5.466;2023-08-24T12:16:33;9.75;;;5.20;;
9420;SDS011;4749;51.398;5.466;2023-08-24T12:19:01;5.82;;;4.07;;
9420;SDS011;4749;51.398;5.466;2023-08-24T12:21:29;11.80;;;4.80;;
9420;SDS011;4749;51.398;5.466;2023-08-24T12:24:01;10.57;;;4.78;;
9420;SDS011;4749;51.398;5.466;2023-08-24T12:26:36;9.38;;;5.20;;
9420;SDS011;4749;51.398;5.466;2023-08-24T12:29:08;13.55;;;4.75;;
9420;SDS011;4749;51.398;5.466;2023-08-24T12:31:42;6.88;;;4.47;;
9420;SDS011;4749;51.398;5.466;2023-08-24T12:34:14;8.63;;;4.53;;
9420;SDS011;4749;51.398;5.466;2023-08-24T12:36:42;7.18;;;4.30;;
9420;SDS011;4749;51.398;5.466;2023-08-24T12:39:10;6.85;;;4.25;;
9420;SDS011;4749;51.398;5.466;2023-08-24T12:41:41;6.72;;;3.50;;
9420;SDS011;4749;51.398;5.466;2023-08-24T12:44:11;6.70;;;3.67;;
9420;SDS011;4749;51.398;5.466;2023-08-24T12:46:41;7.55;;;3.15;;
9420;SDS011;4749;51.398;5.466;2023-08-24T12:49:08;8.13;;;3.33;;
9420;SDS011;4749;51.398;5.466;2023-08-24T12:51:35;9.57;;;3.70;;
9420;SDS011;4749;51.398;5.466;2023-08-24T12:54:02;6.57;;;3.22;;
9420;SDS011;4749;51.398;5.466;2023-08-24T12:56:29;6.72;;;3.25;;
9420;SDS011;4749;51.398;5.466;2023-08-24T12:58:56;6.25;;;3.45;;
9420;SDS011;4749;51.398;5.466;2023-08-24T13:01:24;9.32;;;3.42;;
9420;SDS011;4749;51.398;5.466;2023-08-24T13:03:51;10.27;;;4.25;;
9420;SDS011;4749;51.398;5.466;2023-08-24T13:06:18;7.85;;;3.60;;
9420;SDS011;4749;51.398;5.466;2023-08-24T13:08:50;6.60;;;2.80;;
9420;SDS011;4749;51.398;5.466;2023-08-24T13:11:21;5.55;;;3.35;;
9420;SDS011;4749;51.398;5.466;2023-08-24T13:13:49;7.72;;;3.28;;
9420;SDS011;4749;51.398;5.466;2023-08-24T13:16:16;5.97;;;3.30;;
9420;SDS011;4749;51.398;5.466;2023-08-24T13:18:43;9.15;;;3.67;;
9420;SDS011;4749;51.398;5.466;2023-08-24T13:21:10;8.45;;;3.25;;
9420;SDS011;4749;51.398;5.466;2023-08-24T13:23:38;6.25;;;3.30;;
9420;SDS011;4749;51.398;5.466;2023-08-24T13:26:05;6.15;;;3.10;;
9420;SDS011;4749;51.398;5.466;2023-08-24T13:28:32;6.22;;;3.83;;
9420;SDS011;4749;51.398;5.466;2023-08-24T13:30:59;7.85;;;3.63;;
9420;SDS011;4749;51.398;5.466;2023-08-24T13:33:27;6.22;;;3.22;;
9420;SDS011;4749;51.398;5.466;2023-08-24T13:35:54;5.43;;;3.35;;
9420;SDS011;4749;51.398;5.466;2023-08-24T13:38:21;5.18;;;3.10;;
9420;SDS011;4749;51.398;5.466;2023-08-24T13:40:48;4.97;;;3.08;;
9420;SDS011;4749;51.398;5.466;2023-08-24T13:43:16;8.45;;;3.53;;
9420;SDS011;4749;51.398;5.466;2023-08-24T13:45:43;5.43;;;3.15;;
9420;SDS011;4749;51.398;5.466;2023-08-24T13:48:10;4.50;;;2.92;;
9420;SDS011;4749;51.398;5.466;2023-08-24T13:50:38;5.32;;;3.17;;
9420;SDS011;4749;51.398;5.466;2023-08-24T13:53:05;8.23;;;3.55;;
9420;SDS011;4749;51.398;5.466;2023-08-24T13:55:32;8.23;;;3.20;;
9420;SDS011;4749;51.398;5.466;2023-08-24T13:57:59;4.30;;;2.88;;
9420;SDS011;4749;51.398;5.466;2023-08-24T14:00:26;6.00;;;3.05;;
9420;SDS011;4749;51.398;5.466;2023-08-24T14:02:53;5.78;;;2.70;;
9420;SDS011;4749;51.398;5.466;2023-08-24T14:05:22;6.50;;;3.17;;
9420;SDS011;4749;51.398;5.466;2023-08-24T14:07:49;6.22;;;2.83;;
9420;SDS011;4749;51.398;5.466;2023-08-24T14:10:18;4.55;;;2.70;;
9420;SDS011;4749;51.398;5.466;2023-08-24T14:12:45;5.40;;;2.45;;
9420;SDS011;4749;51.398;5.466;2023-08-24T14:15:13;5.00;;;2.75;;
9420;SDS011;4749;51.398;5.466;2023-08-24T14:17:40;5.50;;;2.50;;
9420;SDS011;4749;51.398;5.466;2023-08-24T14:20:07;3.78;;;2.40;;
9420;SDS011;4749;51.398;5.466;2023-08-24T14:22:35;3.78;;;2.78;;
9420;SDS011;4749;51.398;5.466;2023-08-24T14:25:03;4.78;;;2.92;;
9420;SDS011;4749;51.398;5.466;2023-08-24T14:27:30;6.82;;;3.10;;
9420;SDS011;4749;51.398;5.466;2023-08-24T14:29:57;6.18;;;3.25;;
9420;SDS011;4749;51.398;5.466;2023-08-24T14:32:24;5.70;;;2.53;;
9420;SDS011;4749;51.398;5.466;2023-08-24T14:34:52;5.78;;;3.13;;
9420;SDS011;4749;51.398;5.466;2023-08-24T14:37:19;4.95;;;2.60;;
9420;SDS011;4749;51.398;5.466;2023-08-24T14:39:46;6.05;;;2.90;;
9420;SDS011;4749;51.398;5.466;2023-08-24T14:42:13;6.93;;;2.63;;
9420;SDS011;4749;51.398;5.466;2023-08-24T14:44:40;8.48;;;3.88;;
9420;SDS011;4749;51.398;5.466;2023-08-24T14:47:07;4.60;;;2.63;;
9420;SDS011;4749;51.398;5.466;2023-08-24T14:49:35;5.00;;;2.97;;
9420;SDS011;4749;51.398;5.466;2023-08-24T14:52:02;5.07;;;2.70;;
9420;SDS011;4749;51.398;5.466;2023-08-24T14:54:29;6.15;;;2.50;;
9420;SDS011;4749;51.398;5.466;2023-08-24T14:56:56;4.53;;;2.42;;
9420;SDS011;4749;51.398;5.466;2023-08-24T14:59:25;4.30;;;2.53;;
9420;SDS011;4749;51.398;5.466;2023-08-24T15:01:52;4.28;;;2.20;;
9420;SDS011;4749;51.398;5.466;2023-08-24T15:04:19;3.47;;;1.98;;
9420;SDS011;4749;51.398;5.466;2023-08-24T15:06:46;4.60;;;1.92;;
9420;SDS011;4749;51.398;5.466;2023-08-24T15:09:14;3.45;;;2.00;;
9420;SDS011;4749;51.398;5.466;2023-08-24T15:11:41;3.92;;;2.22;;
9420;SDS011;4749;51.398;5.466;2023-08-24T15:14:08;6.18;;;1.90;;
9420;SDS011;4749;51.398;5.466;2023-08-24T15:16:35;4.30;;;1.88;;
9420;SDS011;4749;51.398;5.466;2023-08-24T15:19:02;3.13;;;1.80;;
9420;SDS011;4749;51.398;5.466;2023-08-24T15:21:29;4.25;;;1.80;;
9420;SDS011;4749;51.398;5.466;2023-08-24T15:23:56;4.55;;;1.85;;
9420;SDS011;4749;51.398;5.466;2023-08-24T15:26:24;4.82;;;2.00;;
9420;SDS011;4749;51.398;5.466;2023-08-24T15:29:06;4.15;;;1.88;;